Saltar para o conteúdo principal

Alcoutim, Mart.Longo

ID 1210865 · 37.4333, -7.7667 mapa

Última leitura · 2026-05-09 19:00 (Europe/Lisbon)

Temperatura
16.8 °C
Humidade
66 %
Pressão
1,010.0 hPa
Precipitação
0.0 mm
Radiação
Velocidade do vento
23.8 km/h
Direcção do vento
SW · Sudoeste

Histórico de 24 horas

Hora (Europe/Lisbon) Temperatura Humidade Pressão Chuva Vento Direcção
2026-05-09 19:00 16.8 °C 66 % 1,010.0 0.0 mm 23.8 km/h SW
2026-05-09 18:00 18.1 °C 60 % 1,009.2 0.0 mm 23.0 km/h SW
2026-05-09 17:00 19.3 °C 54 % 1,008.4 0.0 mm 25.9 km/h S
2026-05-09 16:00 19.2 °C 62 % 1,008.2 0.0 mm 24.5 km/h S
2026-05-09 15:00 18.1 °C 67 % 1,008.2 0.0 mm 27.0 km/h S
2026-05-09 14:00 18.7 °C 59 % 1,007.8 0.0 mm 27.7 km/h SW
2026-05-09 13:00 18.5 °C 58 % 1,007.5 0.0 mm 21.2 km/h S
2026-05-09 12:00 17.1 °C 63 % 1,007.1 0.0 mm 23.8 km/h SW
2026-05-09 11:00 16.9 °C 71 % 1,006.0 0.0 mm 22.7 km/h SW
2026-05-09 10:00 16.1 °C 78 % 1,005.0 0.0 mm 26.3 km/h SW
2026-05-09 09:00 14.6 °C 89 % 1,004.8 1.5 mm 20.9 km/h S
2026-05-09 08:00 13.0 °C 89 % 1,005.2 1.2 mm 18.7 km/h SE
2026-05-09 07:00 13.5 °C 86 % 1,005.1 0.1 mm 22.0 km/h SE
2026-05-09 06:00 14.1 °C 90 % 1,005.0 0.0 mm 15.5 km/h SE
2026-05-09 05:00 13.4 °C 96 % 1,005.6 1.4 mm 13.7 km/h SE
2026-05-09 04:00 12.2 °C 97 % 1,006.4 1.0 mm 5.4 km/h SE
2026-05-09 03:00 12.7 °C 96 % 1,007.0 18.7 mm 7.2 km/h S
2026-05-09 02:00 12.6 °C 95 % 1,007.8 2.3 mm 8.6 km/h E
2026-05-09 01:00 12.0 °C 93 % 1,008.7 0.0 mm 13.7 km/h SE
2026-05-09 00:00 12.2 °C 92 % 1,009.2 0.6 mm 14.8 km/h E
2026-05-08 23:00 13.0 °C 91 % 1,009.8 1.9 mm 11.2 km/h S
2026-05-08 22:00 14.2 °C 81 % 1,009.2 0.6 mm 13.7 km/h SE
2026-05-08 21:00 15.5 °C 69 % 1,008.5 0.0 mm 15.8 km/h SE
2026-05-08 20:00 16.4 °C 62 % 1,008.3 0.0 mm 19.8 km/h SE